createdAt,value
2018-03-17T00:00:38.102Z,4.60
2018-03-17T00:03:05.552Z,4.10
2018-03-17T00:05:33.785Z,5.13
2018-03-17T00:08:01.238Z,4.80
2018-03-17T00:10:28.690Z,4.67
2018-03-17T00:12:56.157Z,4.97
2018-03-17T00:15:23.613Z,4.90
2018-03-17T00:17:51.061Z,5.30
2018-03-17T00:20:18.514Z,3.93
2018-03-17T00:22:45.961Z,4.63
2018-03-17T00:25:14.201Z,5.67
2018-03-17T00:27:41.658Z,5.73
2018-03-17T00:30:09.109Z,6.33
2018-03-17T00:32:36.576Z,5.40
2018-03-17T00:35:04.034Z,5.27
2018-03-17T00:37:31.505Z,5.17
2018-03-17T00:39:58.954Z,4.80
2018-03-17T00:42:26.414Z,5.50
2018-03-17T00:44:53.934Z,5.77
2018-03-17T00:47:21.337Z,5.80
2018-03-17T00:49:48.786Z,5.20
2018-03-17T00:52:16.317Z,6.07
2018-03-17T00:54:43.699Z,5.20
2018-03-17T00:57:11.160Z,5.20
2018-03-17T00:59:38.601Z,5.60
2018-03-17T01:02:06.077Z,5.63
2018-03-17T01:04:34.294Z,5.87
2018-03-17T01:07:01.769Z,5.67
2018-03-17T01:09:29.222Z,6.03
2018-03-17T01:11:56.686Z,5.23
2018-03-17T01:14:24.142Z,6.63
2018-03-17T01:16:51.602Z,6.40
2018-03-17T01:19:19.827Z,6.60
2018-03-17T01:21:47.290Z,5.13
2018-03-17T01:24:14.738Z,5.40
2018-03-17T01:26:42.962Z,7.13
2018-03-17T01:29:10.418Z,5.87
2018-03-17T01:31:37.880Z,6.37
2018-03-17T01:34:05.334Z,5.63
2018-03-17T01:36:32.793Z,6.30
2018-03-17T01:39:00.249Z,5.60
2018-03-17T01:41:27.705Z,6.10
2018-03-17T01:43:55.158Z,5.73
2018-03-17T01:46:22.688Z,6.00
2018-03-17T01:48:50.129Z,5.13
2018-03-17T01:51:17.589Z,6.07
2018-03-17T01:53:45.040Z,6.50
2018-03-17T01:56:12.505Z,4.60
2018-03-17T01:58:39.945Z,5.07
2018-03-17T02:01:07.413Z,4.97
2018-03-17T02:03:34.868Z,5.43
2018-03-17T02:06:02.326Z,5.10
2018-03-17T02:08:29.782Z,4.73
2018-03-17T02:10:57.241Z,6.60
2018-03-17T02:13:24.714Z,6.70
2018-03-17T02:15:52.160Z,6.10
2018-03-17T02:18:19.624Z,6.37
2018-03-17T02:20:47.083Z,5.53
2018-03-17T02:23:14.538Z,6.20
2018-03-17T02:25:41.989Z,6.93
2018-03-17T02:28:09.450Z,7.30
2018-03-17T02:30:36.899Z,6.20
2018-03-17T02:33:04.359Z,8.63
2018-03-17T02:35:31.815Z,8.37
2018-03-17T02:37:59.265Z,7.90
2018-03-17T02:40:26.730Z,7.33
2018-03-17T02:42:54.185Z,6.93
2018-03-17T02:45:21.643Z,8.53
2018-03-17T02:47:49.105Z,8.87
2018-03-17T02:50:16.561Z,11.53
2018-03-17T02:52:44.021Z,11.00
2018-03-17T02:55:11.479Z,13.00
2018-03-17T02:57:38.946Z,14.53
2018-03-17T03:00:06.397Z,13.77
2018-03-17T03:02:33.861Z,14.57
2018-03-17T03:05:01.317Z,15.90
2018-03-17T03:07:28.778Z,14.20
2018-03-17T03:09:56.230Z,15.60
2018-03-17T03:12:23.699Z,16.43
2018-03-17T03:14:51.149Z,15.80
2018-03-17T03:17:18.613Z,15.67
2018-03-17T03:19:46.070Z,15.40
2018-03-17T03:22:13.528Z,15.30
2018-03-17T03:24:40.987Z,17.03
2018-03-17T03:27:08.450Z,16.00
2018-03-17T03:29:35.905Z,19.33
2018-03-17T03:32:03.364Z,18.00
2018-03-17T03:34:30.817Z,17.40
2018-03-17T03:36:58.282Z,16.50
2018-03-17T03:39:25.741Z,18.00
2018-03-17T03:41:53.194Z,16.50
2018-03-17T03:44:20.673Z,18.17
2018-03-17T03:46:48.894Z,18.97
2018-03-17T03:49:16.415Z,19.20
2018-03-17T03:51:43.818Z,19.03
2018-03-17T03:54:11.281Z,18.23
2018-03-17T03:56:38.734Z,18.63
2018-03-17T03:59:06.197Z,18.50
2018-03-17T04:01:33.649Z,18.67
2018-03-17T04:04:01.111Z,19.37
2018-03-17T04:06:28.565Z,19.83
2018-03-17T04:08:56.029Z,19.43
2018-03-17T04:11:23.486Z,19.90
2018-03-17T04:13:50.954Z,21.57
2018-03-17T04:16:19.189Z,19.07
2018-03-17T04:18:46.649Z,19.80
2018-03-17T04:21:14.883Z,21.80
2018-03-17T04:23:42.342Z,19.83
2018-03-17T04:26:09.796Z,21.13
2018-03-17T04:28:37.270Z,22.40
2018-03-17T04:31:04.730Z,21.50
2018-03-17T04:33:32.193Z,23.40
2018-03-17T04:35:59.650Z,22.47
2018-03-17T04:38:27.122Z,22.87
2018-03-17T04:40:55.345Z,22.33
2018-03-17T04:43:23.577Z,26.10
2018-03-17T04:45:51.029Z,23.17
2018-03-17T04:48:18.493Z,23.67
2018-03-17T04:50:45.946Z,23.57
2018-03-17T04:53:13.415Z,23.43
2018-03-17T04:55:40.857Z,25.73
2018-03-17T04:58:08.331Z,27.20
2018-03-17T05:00:35.854Z,25.13
2018-03-17T05:03:03.326Z,25.07
2018-03-17T05:05:30.781Z,25.37
2018-03-17T05:07:58.245Z,27.40
2018-03-17T05:10:25.698Z,25.03
2018-03-17T05:12:53.163Z,24.47
2018-03-17T05:15:20.614Z,28.43
2018-03-17T05:17:48.097Z,26.37
2018-03-17T05:20:15.545Z,25.37
2018-03-17T05:22:43.005Z,25.87
2018-03-17T05:25:10.461Z,26.33
2018-03-17T05:27:37.918Z,26.30
2018-03-17T05:30:05.377Z,24.70
2018-03-17T05:32:32.830Z,26.23
2018-03-17T05:35:00.302Z,25.27
2018-03-17T05:37:28.526Z,27.37
2018-03-17T05:39:55.990Z,26.83
2018-03-17T05:42:23.447Z,27.97
2018-03-17T05:44:50.919Z,28.10
2018-03-17T05:47:18.378Z,25.30
2018-03-17T05:49:45.841Z,25.60
2018-03-17T05:52:13.308Z,24.90
2018-03-17T05:54:40.766Z,26.00
2018-03-17T05:57:08.217Z,27.80
2018-03-17T05:59:35.677Z,25.90
2018-03-17T06:02:03.133Z,26.97
2018-03-17T06:04:30.601Z,26.53
2018-03-17T06:06:58.816Z,27.77
2018-03-17T06:09:26.290Z,26.77
2018-03-17T06:11:53.748Z,25.60
2018-03-17T06:14:21.206Z,26.63
2018-03-17T06:16:48.665Z,26.07
2018-03-17T06:19:16.136Z,28.27
2018-03-17T06:21:43.586Z,27.70
2018-03-17T06:24:11.057Z,25.40
2018-03-17T06:26:38.510Z,24.60
2018-03-17T06:29:05.981Z,24.13
2018-03-17T06:31:34.197Z,27.07
2018-03-17T06:34:01.668Z,24.00
2018-03-17T06:36:29.169Z,24.53
2018-03-17T06:38:57.350Z,26.57
2018-03-17T06:41:25.572Z,26.37
2018-03-17T06:43:53.047Z,25.80
2018-03-17T06:46:20.493Z,25.53
2018-03-17T06:48:47.974Z,24.20
2018-03-17T06:51:15.426Z,27.03
2018-03-17T06:53:42.918Z,25.37
2018-03-17T06:56:10.374Z,26.00
2018-03-17T06:58:37.828Z,26.10
2018-03-17T07:01:05.291Z,26.50
2018-03-17T07:03:32.737Z,26.40
2018-03-17T07:06:00.203Z,26.73
2018-03-17T07:08:27.654Z,28.33
2018-03-17T07:10:55.118Z,24.90
2018-03-17T07:13:22.572Z,25.83
2018-03-17T07:15:50.046Z,28.00
2018-03-17T07:18:17.497Z,26.97
2018-03-17T07:20:45.001Z,25.27
2018-03-17T07:23:12.454Z,27.80
2018-03-17T07:25:39.919Z,25.63
2018-03-17T07:28:07.369Z,28.70
2018-03-17T07:30:34.922Z,28.90
2018-03-17T07:33:02.385Z,27.40
2018-03-17T07:35:29.860Z,26.60
2018-03-17T07:37:58.097Z,24.40
2018-03-17T07:40:25.630Z,28.37
2018-03-17T07:42:53.088Z,26.93
2018-03-17T07:45:20.597Z,26.07
2018-03-17T07:47:48.006Z,25.57
2018-03-17T07:50:15.481Z,27.27
2018-03-17T07:52:42.942Z,26.77
2018-03-17T07:55:10.405Z,27.30
2018-03-17T07:57:37.870Z,26.43
2018-03-17T08:00:05.335Z,26.83
2018-03-17T08:02:32.791Z,26.23
2018-03-17T08:05:00.254Z,25.90
2018-03-17T08:07:28.479Z,23.67
2018-03-17T08:09:55.938Z,27.00
2018-03-17T08:12:23.393Z,23.50
2018-03-17T08:14:50.858Z,25.37
2018-03-17T08:17:18.310Z,28.00
2018-03-17T08:19:45.774Z,24.50
2018-03-17T08:22:13.232Z,23.70
2018-03-17T08:24:40.705Z,24.77
2018-03-17T08:27:08.170Z,25.73
2018-03-17T08:29:35.641Z,24.50
2018-03-17T08:32:03.870Z,23.00
2018-03-17T08:34:31.335Z,25.30
2018-03-17T08:36:58.802Z,26.20
2018-03-17T08:39:26.306Z,25.67
2018-03-17T08:41:53.866Z,25.07
2018-03-17T08:44:22.093Z,24.00
2018-03-17T08:46:49.554Z,24.27
2018-03-17T08:49:17.089Z,25.70
2018-03-17T08:51:44.484Z,23.80
2018-03-17T08:54:11.931Z,26.40
2018-03-17T08:56:39.401Z,27.13
2018-03-17T08:59:06.879Z,24.90
2018-03-17T09:01:34.381Z,22.23
2018-03-17T09:04:01.850Z,23.80
2018-03-17T09:06:29.314Z,27.67
2018-03-17T09:08:56.770Z,26.03
2018-03-17T09:11:24.251Z,24.33
2018-03-17T09:13:52.470Z,23.40
2018-03-17T09:16:19.921Z,24.17
2018-03-17T09:18:47.382Z,25.93
2018-03-17T09:21:14.852Z,26.50
2018-03-17T09:23:42.305Z,25.33
2018-03-17T09:26:09.764Z,27.60
2018-03-17T09:28:37.226Z,26.07
2018-03-17T09:31:04.690Z,24.77
2018-03-17T09:33:32.138Z,25.87
2018-03-17T09:35:59.603Z,26.17
2018-03-17T09:38:27.075Z,26.00
2018-03-17T09:40:54.531Z,25.70
2018-03-17T09:43:21.994Z,26.10
2018-03-17T09:45:49.441Z,25.50
2018-03-17T09:48:16.902Z,25.90
2018-03-17T09:50:44.354Z,24.77
2018-03-17T09:53:11.816Z,23.87
2018-03-17T09:55:39.276Z,24.37
2018-03-17T09:58:06.735Z,25.37
2018-03-17T10:00:34.966Z,26.47
2018-03-17T10:03:02.432Z,26.43
2018-03-17T10:05:29.902Z,24.87
2018-03-17T10:07:57.357Z,26.03
2018-03-17T10:10:24.806Z,25.40
2018-03-17T10:12:52.311Z,25.77
2018-03-17T10:15:19.725Z,24.53
2018-03-17T10:17:47.178Z,24.63
2018-03-17T10:20:14.639Z,23.33
2018-03-17T10:22:42.108Z,25.30
2018-03-17T10:25:09.574Z,24.23
2018-03-17T10:27:37.789Z,25.47
2018-03-17T10:30:05.253Z,24.40
2018-03-17T10:32:32.729Z,24.03
2018-03-17T10:35:00.190Z,24.50
2018-03-17T10:37:27.645Z,24.20
2018-03-17T10:39:55.110Z,25.80
2018-03-17T10:42:22.557Z,25.80
2018-03-17T10:44:50.790Z,25.63
2018-03-17T10:47:18.250Z,26.30
2018-03-17T10:49:45.719Z,25.37
2018-03-17T10:52:13.179Z,24.80
2018-03-17T10:54:40.646Z,25.67
2018-03-17T10:57:08.106Z,25.83
2018-03-17T10:59:35.562Z,24.30
2018-03-17T11:02:04.788Z,24.17
2018-03-17T11:04:32.256Z,24.93
2018-03-17T11:06:59.723Z,24.73
2018-03-17T11:09:28.032Z,28.83
2018-03-17T11:11:57.059Z,27.37
2018-03-17T11:14:24.514Z,24.57
2018-03-17T11:16:52.029Z,25.03
2018-03-17T11:19:19.421Z,25.00
2018-03-17T11:21:46.883Z,24.40
2018-03-17T11:24:14.342Z,24.80
2018-03-17T11:26:41.799Z,24.03
2018-03-17T11:29:09.264Z,25.07
2018-03-17T11:31:36.725Z,23.30
2018-03-17T11:34:04.179Z,25.57
2018-03-17T11:36:31.637Z,24.73
2018-03-17T11:38:59.094Z,23.63
2018-03-17T11:41:26.571Z,23.00
2018-03-17T11:43:54.785Z,23.73
2018-03-17T11:46:22.249Z,23.30
2018-03-17T11:48:49.712Z,24.67
2018-03-17T11:51:17.161Z,23.77
2018-03-17T11:53:45.387Z,24.70
2018-03-17T11:56:13.611Z,25.67
2018-03-17T11:58:41.074Z,24.83
2018-03-17T12:01:08.535Z,24.57
2018-03-17T12:03:35.986Z,25.33
2018-03-17T12:06:03.567Z,25.27
2018-03-17T12:08:31.022Z,22.80
2018-03-17T12:10:58.498Z,24.93
2018-03-17T12:13:26.733Z,24.90
2018-03-17T12:15:54.194Z,22.83
2018-03-17T12:18:21.650Z,23.90
2018-03-17T12:20:49.106Z,26.23
2018-03-17T12:23:17.334Z,22.77
2018-03-17T12:25:44.794Z,22.93
2018-03-17T12:28:12.254Z,24.30
2018-03-17T12:30:39.718Z,22.63
2018-03-17T12:33:07.181Z,22.23
2018-03-17T12:35:34.647Z,23.30
2018-03-17T12:38:02.110Z,24.03
2018-03-17T12:40:29.599Z,22.60
2018-03-17T12:42:57.096Z,22.10
2018-03-17T12:45:24.553Z,22.53
2018-03-17T12:47:52.013Z,22.20
2018-03-17T12:50:19.481Z,19.77
2018-03-17T12:52:47.360Z,22.33
2018-03-17T12:55:14.854Z,23.37
2018-03-17T12:57:43.094Z,22.70
2018-03-17T13:00:10.555Z,21.60
2018-03-17T13:02:38.826Z,23.33
2018-03-17T13:05:06.281Z,22.30
2018-03-17T13:07:33.754Z,24.00
2018-03-17T13:10:01.219Z,21.93
2018-03-17T13:12:28.672Z,22.80
2018-03-17T13:14:56.132Z,22.93
2018-03-17T13:17:23.582Z,20.77
2018-03-17T13:19:51.044Z,21.00
2018-03-17T13:22:18.502Z,20.73
2018-03-17T13:24:45.957Z,21.30
2018-03-17T13:27:25.144Z,20.80
2018-03-17T13:29:52.602Z,21.17
2018-03-17T13:32:32.022Z,21.67
2018-03-17T13:34:59.489Z,23.07
2018-03-17T13:37:37.818Z,22.13
2018-03-17T13:40:17.182Z,21.20
2018-03-17T13:42:45.328Z,21.80
2018-03-17T13:45:12.789Z,22.43
2018-03-17T13:47:40.242Z,21.83
2018-03-17T13:50:07.706Z,21.90
2018-03-17T13:52:35.157Z,23.00
2018-03-17T13:55:02.622Z,20.63
2018-03-17T13:57:30.078Z,23.70
2018-03-17T13:59:58.305Z,21.03
2018-03-17T14:02:25.810Z,23.13
2018-03-17T14:04:53.272Z,22.80
2018-03-17T14:07:20.738Z,21.87
2018-03-17T14:09:48.193Z,23.93
2018-03-17T14:12:15.639Z,23.67
2018-03-17T14:14:43.101Z,25.20
2018-03-17T14:17:10.556Z,25.43
2018-03-17T14:19:38.024Z,24.73
2018-03-17T14:22:05.488Z,24.07
2018-03-17T14:24:32.946Z,25.43
2018-03-17T14:27:00.408Z,24.90
2018-03-17T14:29:27.878Z,24.80
2018-03-17T14:31:56.110Z,24.20
2018-03-17T14:34:23.583Z,24.90
2018-03-17T14:36:51.038Z,23.90
2018-03-17T14:39:18.489Z,25.60
2018-03-17T14:41:45.970Z,22.93
2018-03-17T14:44:13.440Z,25.00
2018-03-17T14:46:41.663Z,25.67
2018-03-17T14:49:09.135Z,24.33
2018-03-17T14:51:36.594Z,23.03
2018-03-17T14:54:04.050Z,25.73
2018-03-17T14:56:31.517Z,22.70
2018-03-17T14:58:58.977Z,22.83
2018-03-17T15:01:26.438Z,25.07
2018-03-17T15:03:53.935Z,24.73
2018-03-17T15:06:21.426Z,24.40
2018-03-17T15:08:48.877Z,25.57
2018-03-17T15:11:16.338Z,24.13
2018-03-17T15:13:44.561Z,23.43
2018-03-17T15:16:12.023Z,25.07
2018-03-17T15:18:39.477Z,23.30
2018-03-17T15:21:06.934Z,23.00
2018-03-17T15:23:34.398Z,23.37
2018-03-17T15:26:01.859Z,22.80
2018-03-17T15:28:29.351Z,24.97
2018-03-17T15:30:56.813Z,26.33
2018-03-17T15:33:24.267Z,24.97
2018-03-17T15:35:52.134Z,26.93
2018-03-17T15:38:19.580Z,28.07
2018-03-17T15:40:47.042Z,26.00
2018-03-17T15:43:14.541Z,22.20
2018-03-17T15:45:42.757Z,25.07
2018-03-17T15:48:10.286Z,24.63
2018-03-17T15:50:37.691Z,26.60
2018-03-17T15:53:05.151Z,25.00
2018-03-17T15:55:32.609Z,24.97
2018-03-17T15:58:00.078Z,24.63
2018-03-17T16:00:27.546Z,22.90
2018-03-17T16:02:55.002Z,23.80
2018-03-17T16:05:23.226Z,24.50
2018-03-17T16:07:50.694Z,24.03
2018-03-17T16:10:18.234Z,23.33
2018-03-17T16:12:45.691Z,22.93
2018-03-17T16:15:13.153Z,23.90
2018-03-17T16:17:40.615Z,23.17
2018-03-17T16:20:08.071Z,23.23
2018-03-17T16:22:35.524Z,24.37
2018-03-17T16:25:03.086Z,23.07
2018-03-17T16:27:30.542Z,23.37
2018-03-17T16:29:58.088Z,25.20
2018-03-17T16:32:25.537Z,22.80
2018-03-17T16:34:52.989Z,25.07
2018-03-17T16:37:20.450Z,24.37
2018-03-17T16:39:48.018Z,22.00
2018-03-17T16:42:15.481Z,22.30
2018-03-17T16:44:42.946Z,21.63
2018-03-17T16:47:10.413Z,21.40
2018-03-17T16:49:37.869Z,23.40
2018-03-17T16:52:05.317Z,21.10
2018-03-17T16:54:32.783Z,20.87
2018-03-17T16:57:00.239Z,21.47
2018-03-17T16:59:27.710Z,21.20
2018-03-17T17:01:55.170Z,21.00
2018-03-17T17:04:22.635Z,21.20
2018-03-17T17:06:50.087Z,21.10
2018-03-17T17:09:17.573Z,22.03
2018-03-17T17:11:44.997Z,20.13
2018-03-17T17:14:12.450Z,21.47
2018-03-17T17:16:39.965Z,23.37
2018-03-17T17:19:07.422Z,22.10
2018-03-17T17:21:34.873Z,20.87
2018-03-17T17:24:02.326Z,20.60
2018-03-17T17:26:29.788Z,21.67
2018-03-17T17:28:57.234Z,20.37
2018-03-17T17:31:24.689Z,22.37
2018-03-17T17:33:52.166Z,21.20
2018-03-17T17:36:19.611Z,23.60
2018-03-17T17:38:47.078Z,22.30
2018-03-17T17:41:14.536Z,23.17
2018-03-17T17:43:41.990Z,21.10
2018-03-17T17:46:09.451Z,20.53
2018-03-17T17:48:36.910Z,20.80
2018-03-17T17:51:04.361Z,20.07
2018-03-17T17:53:31.821Z,20.23
2018-03-17T17:55:59.279Z,20.40
2018-03-17T17:58:26.757Z,19.90
2018-03-17T18:00:54.220Z,19.57
2018-03-17T18:03:21.674Z,19.90
2018-03-17T18:05:49.129Z,22.17
2018-03-17T18:08:16.578Z,22.30
2018-03-17T18:10:44.033Z,20.63
2018-03-17T18:13:11.481Z,20.37
2018-03-17T18:15:38.946Z,21.20
2018-03-17T18:18:06.402Z,21.43
2018-03-17T18:20:33.858Z,20.63
2018-03-17T18:23:02.081Z,21.80
2018-03-17T18:25:30.321Z,21.80
2018-03-17T18:27:57.770Z,21.00
2018-03-17T18:30:25.276Z,20.67
2018-03-17T18:32:52.739Z,22.27
2018-03-17T18:35:20.202Z,20.87
2018-03-17T18:37:48.589Z,23.10
2018-03-17T18:40:16.059Z,21.33
2018-03-17T18:42:43.523Z,23.17
2018-03-17T18:45:10.973Z,21.93
2018-03-17T18:47:38.442Z,21.67
2018-03-17T18:50:05.898Z,26.67
2018-03-17T18:52:34.131Z,23.63
2018-03-17T18:55:01.598Z,21.60
2018-03-17T18:57:29.057Z,22.50
2018-03-17T18:59:56.547Z,23.30
2018-03-17T19:02:24.014Z,28.40
2018-03-17T19:04:51.478Z,23.20
2018-03-17T19:07:18.933Z,22.87
2018-03-17T19:09:46.385Z,27.87
2018-03-17T19:12:13.853Z,21.90
2018-03-17T19:14:41.314Z,23.27
2018-03-17T19:17:08.782Z,20.97
2018-03-17T19:19:37.009Z,22.60
2018-03-17T19:22:04.466Z,20.60
2018-03-17T19:24:31.921Z,20.53
2018-03-17T19:26:59.385Z,21.80
2018-03-17T19:29:26.837Z,21.37
2018-03-17T19:31:54.305Z,23.70
2018-03-17T19:34:21.788Z,21.83
2018-03-17T19:36:49.258Z,22.80
2018-03-17T19:39:17.474Z,22.73
2018-03-17T19:41:44.933Z,22.83
2018-03-17T19:44:12.465Z,22.37
2018-03-17T19:46:39.842Z,23.10
2018-03-17T19:49:07.297Z,22.90
2018-03-17T19:51:34.762Z,23.33
2018-03-17T19:54:02.242Z,22.50
2018-03-17T19:56:29.685Z,23.63
2018-03-17T19:58:57.142Z,22.30
2018-03-17T20:01:24.600Z,23.30
2018-03-17T20:03:52.063Z,23.53
2018-03-17T20:06:19.513Z,23.40
2018-03-17T20:08:46.977Z,22.50
2018-03-17T20:11:15.159Z,22.93
2018-03-17T20:13:42.618Z,21.87
2018-03-17T20:16:10.163Z,24.00
2018-03-17T20:18:37.617Z,24.10
2018-03-17T20:21:05.074Z,24.70
2018-03-17T20:23:32.538Z,23.17
2018-03-17T20:25:59.981Z,23.00
2018-03-17T20:28:27.441Z,24.03
2018-03-17T20:30:54.902Z,23.40
2018-03-17T20:33:22.369Z,23.50
2018-03-17T20:35:49.817Z,23.03
2018-03-17T20:38:17.281Z,24.17
2018-03-17T20:40:44.738Z,23.90
2018-03-17T20:43:12.202Z,25.23
2018-03-17T20:45:39.658Z,25.17
2018-03-17T20:48:07.118Z,23.03
2018-03-17T20:50:35.343Z,23.70
2018-03-17T20:53:02.806Z,23.17
2018-03-17T20:55:30.257Z,22.37
2018-03-17T20:57:57.753Z,21.87
2018-03-17T21:00:25.961Z,25.77
2018-03-17T21:02:53.426Z,23.47
2018-03-17T21:05:20.882Z,26.47
2018-03-17T21:07:48.350Z,23.30
2018-03-17T21:10:15.802Z,25.90
2018-03-17T21:12:43.266Z,24.60
2018-03-17T21:15:10.717Z,26.20
2018-03-17T21:17:38.190Z,28.10
2018-03-17T21:20:05.648Z,27.83
2018-03-17T21:22:33.118Z,24.07
2018-03-17T21:25:00.570Z,27.43
2018-03-17T21:27:28.033Z,25.70
2018-03-17T21:29:55.500Z,23.63
2018-03-17T21:32:28.758Z,24.23
2018-03-17T21:34:56.216Z,23.20
2018-03-17T21:37:23.669Z,24.17
2018-03-17T21:39:51.138Z,26.13
2018-03-17T21:42:18.590Z,24.20
2018-03-17T21:44:46.850Z,25.47
2018-03-17T21:47:14.305Z,24.73
2018-03-17T21:49:41.779Z,26.50
2018-03-17T21:52:09.254Z,24.63
2018-03-17T21:54:36.716Z,24.43
2018-03-17T21:57:04.165Z,26.93
2018-03-17T21:59:31.629Z,23.00
2018-03-17T22:01:59.833Z,26.37
2018-03-17T22:04:28.073Z,25.67
2018-03-17T22:06:55.545Z,25.20
2018-03-17T22:09:23.010Z,24.70
2018-03-17T22:11:51.262Z,24.97
2018-03-17T22:14:18.726Z,27.43
2018-03-17T22:16:46.181Z,25.93
2018-03-17T22:19:13.650Z,25.10
2018-03-17T22:21:41.113Z,26.17
2018-03-17T22:24:08.597Z,24.77
2018-03-17T22:26:36.063Z,25.40
2018-03-17T22:29:03.521Z,24.60
2018-03-17T22:31:30.986Z,23.53
2018-03-17T22:33:58.445Z,24.60
2018-03-17T22:36:25.906Z,24.07
2018-03-17T22:38:53.451Z,24.57
2018-03-17T22:41:20.897Z,25.57
2018-03-17T22:43:48.377Z,25.63
2018-03-17T22:46:15.832Z,23.90
2018-03-17T22:48:43.297Z,26.10
2018-03-17T22:51:10.761Z,22.87
2018-03-17T22:53:38.218Z,23.57
2018-03-17T22:56:05.668Z,25.10
2018-03-17T22:58:33.133Z,23.50
2018-03-17T23:01:00.593Z,25.77
2018-03-17T23:03:28.058Z,26.40
2018-03-17T23:05:55.514Z,22.83
2018-03-17T23:08:23.025Z,22.97
2018-03-17T23:10:50.491Z,26.70
2018-03-17T23:13:17.947Z,25.50
2018-03-17T23:15:45.405Z,23.20
2018-03-17T23:18:12.859Z,25.47
2018-03-17T23:20:40.324Z,26.97
2018-03-17T23:23:07.791Z,25.77
2018-03-17T23:25:35.249Z,25.87
2018-03-17T23:28:02.710Z,25.60
2018-03-17T23:30:30.165Z,24.77
2018-03-17T23:32:57.618Z,25.67
2018-03-17T23:35:25.857Z,25.47
2018-03-17T23:37:53.301Z,25.70
2018-03-17T23:40:20.773Z,23.90
2018-03-17T23:42:48.986Z,23.20
2018-03-17T23:45:16.461Z,24.03
2018-03-17T23:47:43.922Z,24.37
2018-03-17T23:50:11.396Z,23.50
2018-03-17T23:52:39.622Z,22.83
2018-03-17T23:55:07.084Z,22.67
2018-03-17T23:57:34.546Z,23.37
